Time;durP1;ratioP1;P1;durP2;ratioP2;P2;SDS_P1;SDS_P2;PMS_P1;PMS_P2;Temp;Humidity;BMP_temperature;BMP_pressure;BME280_temperature;BME280_humidity;BME280_pressure;Samples;Min_cycle;Max_cycle;Signal;HPM_P1;HPM_P2
2022/09/07 00:02:18;;;;;;;6.23;2.67;;;;;;;;;;5043119;27;92166;-52
2022/09/07 00:04:46;;;;;;;3.73;2.40;;;;;;;;;;5036452;28;93199;-51
2022/09/07 00:07:15;;;;;;;3.87;2.27;;;;;;;;;;5037322;28;92738;-51
2022/09/07 00:09:43;;;;;;;3.37;1.87;;;;;;;;;;5037070;28;92959;-52
2022/09/07 00:12:11;;;;;;;3.33;1.97;;;;;;;;;;5041888;27;92124;-51
2022/09/07 00:14:40;;;;;;;3.33;2.17;;;;;;;;;;5037187;27;94272;-51
2022/09/07 00:17:08;;;;;;;3.33;1.80;;;;;;;;;;5037535;28;95010;-51
2022/09/07 00:19:37;;;;;;;3.53;2.23;;;;;;;;;;5037696;28;93403;-51
2022/09/07 00:22:06;;;;;;;3.67;2.60;;;;;;;;;;5037627;28;92084;-51
2022/09/07 00:24:34;;;;;;;2.90;2.00;;;;;;;;;;5037825;28;93092;-52
2022/09/07 00:27:02;;;;;;;2.63;2.20;;;;;;;;;;5035838;28;93954;-51
2022/09/07 00:29:31;;;;;;;4.97;1.80;;;;;;;;;;5035011;28;92569;-51
2022/09/07 00:31:59;;;;;;;2.50;1.77;;;;;;;;;;5036202;27;92782;-52
2022/09/07 00:34:27;;;;;;;3.40;1.70;;;;;;;;;;5035276;28;94170;-52
2022/09/07 00:36:57;;;;;;;2.27;1.60;;;;;;;;;;5035263;28;93905;-51
2022/09/07 00:39:25;;;;;;;2.53;1.47;;;;;;;;;;5032594;28;93304;-51
2022/09/07 00:41:53;;;;;;;6.43;1.77;;;;;;;;;;5035728;28;92183;-51
2022/09/07 00:44:56;;;;;;;3.30;1.83;;;;;;;;;;5035220;28;94364;-51
2022/09/07 00:47:25;;;;;;;2.30;1.30;;;;;;;;;;5033808;27;94089;-51
2022/09/07 00:49:55;;;;;;;3.07;1.50;;;;;;;;;;5037068;28;92624;-51
2022/09/07 00:52:24;;;;;;;2.40;1.57;;;;;;;;;;5041154;27;94045;-52
2022/09/07 00:54:53;;;;;;;2.63;1.53;;;;;;;;;;5057203;27;94154;-51
2022/09/07 00:57:21;;;;;;;2.30;1.07;;;;;;;;;;5056688;27;93960;-51
2022/09/07 00:59:50;;;;;;;3.10;1.53;;;;;;;;;;5047203;27;92087;-52
2022/09/07 01:02:18;;;;;;;1.10;1.00;;;;;;;;;;5036050;28;92287;-51
2022/09/07 01:04:48;;;;;;;1.10;0.97;;;;;;;;;;5035145;28;95202;-51
2022/09/07 01:07:16;;;;;;;2.23;1.03;;;;;;;;;;5027867;28;93762;-51
2022/09/07 01:09:46;;;;;;;1.40;1.00;;;;;;;;;;5026682;27;92533;-52
2022/09/07 01:12:14;;;;;;;3.13;1.53;;;;;;;;;;5025821;28;92472;-51
2022/09/07 01:14:43;;;;;;;1.73;1.03;;;;;;;;;;5027183;27;94411;-51
2022/09/07 01:17:15;;;;;;;2.90;1.30;;;;;;;;;;5033076;28;93883;-52
2022/09/07 01:20:01;;;;;;;1.97;1.60;;;;;;;;;;5034527;27;93110;-51
2022/09/07 01:22:35;;;;;;;2.17;1.20;;;;;;;;;;5035931;27;91478;-52
2022/09/07 01:25:05;;;;;;;1.40;1.03;;;;;;;;;;5033601;28;93350;-51
2022/09/07 01:27:43;;;;;;;1.37;1.07;;;;;;;;;;5034873;27;92973;-52
2022/09/07 01:30:12;;;;;;;0.90;0.90;;;;;;;;;;5035207;27;94404;-52
2022/09/07 01:32:55;;;;;;;2.03;1.10;;;;;;;;;;5031248;27;92269;-51
2022/09/07 01:35:25;;;;;;;2.37;1.47;;;;;;;;;;5032860;28;94659;-51
2022/09/07 01:37:55;;;;;;;2.57;1.67;;;;;;;;;;5033514;27;92852;-52
2022/09/07 01:40:25;;;;;;;2.07;0.83;;;;;;;;;;5032828;28;92406;-52
2022/09/07 01:42:56;;;;;;;2.70;1.50;;;;;;;;;;5038915;27;92264;-51
2022/09/07 01:45:25;;;;;;;3.87;1.93;;;;;;;;;;5036378;27;94353;-51
2022/09/07 01:47:54;;;;;;;2.87;2.30;;;;;;;;;;5039313;27;94299;-51
2022/09/07 01:50:23;;;;;;;5.03;2.17;;;;;;;;;;5036633;27;92704;-51
2022/09/07 01:52:52;;;;;;;4.23;2.03;;;;;;;;;;5038307;27;92259;-51
2022/09/07 01:55:22;;;;;;;3.57;2.70;;;;;;;;;;5035860;28;94305;-51
2022/09/07 01:57:51;;;;;;;5.90;3.13;;;;;;;;;;5037002;27;94796;-52
2022/09/07 02:00:21;;;;;;;5.10;2.83;;;;;;;;;;5038223;28;92244;-52
2022/09/07 02:02:49;;;;;;;3.30;2.40;;;;;;;;;;5036417;28;92874;-52
2022/09/07 02:05:19;;;;;;;3.47;2.53;;;;;;;;;;5035469;28;94080;-50
2022/09/07 02:07:48;;;;;;;5.00;2.53;;;;;;;;;;5035109;28;93700;-51
2022/09/07 02:10:17;;;;;;;5.77;2.20;;;;;;;;;;5037848;28;92282;-50
2022/09/07 02:12:46;;;;;;;5.77;2.70;;;;;;;;;;5038097;28;91500;-50
2022/09/07 02:15:14;;;;;;;4.40;2.80;;;;;;;;;;5037350;28;94161;-50
2022/09/07 02:17:44;;;;;;;4.47;2.63;;;;;;;;;;5037844;27;94015;-50
2022/09/07 02:20:13;;;;;;;3.93;2.63;;;;;;;;;;5038097;28;93011;-50
2022/09/07 02:22:44;;;;;;;4.40;3.07;;;;;;;;;;5038891;28;92076;-50
2022/09/07 02:25:13;;;;;;;6.27;3.50;;;;;;;;;;5038568;28;94373;-50
2022/09/07 02:27:42;;;;;;;8.47;4.10;;;;;;;;;;5037386;28;94201;-50
2022/09/07 02:30:10;;;;;;;5.37;2.87;;;;;;;;;;5038341;28;92206;-51
2022/09/07 02:32:39;;;;;;;6.37;3.63;;;;;;;;;;5038875;28;92953;-52
2022/09/07 02:35:09;;;;;;;9.07;3.73;;;;;;;;;;5037743;27;94319;-51
2022/09/07 02:37:37;;;;;;;6.90;3.83;;;;;;;;;;5039426;28;94643;-51
2022/09/07 02:40:07;;;;;;;6.27;4.37;;;;;;;;;;5039206;28;92088;-50
2022/09/07 02:42:35;;;;;;;6.60;3.80;;;;;;;;;;5039251;28;92259;-51
2022/09/07 02:45:04;;;;;;;9.03;4.73;;;;;;;;;;5038158;28;94105;-51
2022/09/07 02:47:34;;;;;;;7.90;5.20;;;;;;;;;;5038410;28;94883;-51
2022/09/07 02:50:20;;;;;;;7.73;4.87;;;;;;;;;;5038879;28;94088;-51
2022/09/07 02:52:55;;;;;;;7.47;4.60;;;;;;;;;;5038710;28;92241;-52
2022/09/07 02:55:26;;;;;;;7.60;4.43;;;;;;;;;;5038242;27;94198;-51
2022/09/07 02:57:58;;;;;;;8.37;4.60;;;;;;;;;;5037578;28;93983;-51
2022/09/07 03:00:27;;;;;;;6.67;3.90;;;;;;;;;;5038086;28;92208;-51
2022/09/07 03:02:58;;;;;;;5.00;3.23;;;;;;;;;;5038211;27;91409;-50
2022/09/07 03:05:27;;;;;;;4.57;3.07;;;;;;;;;;5036993;28;93153;-51
2022/09/07 03:08:00;;;;;;;7.27;3.53;;;;;;;;;;5038029;28;94133;-51
2022/09/07 03:10:28;;;;;;;5.87;3.60;;;;;;;;;;5037875;28;93131;-51
2022/09/07 03:12:56;;;;;;;3.47;2.70;;;;;;;;;;5037961;28;92177;-52
2022/09/07 03:15:26;;;;;;;4.13;2.70;;;;;;;;;;5038558;28;94243;-51
2022/09/07 03:17:54;;;;;;;5.93;2.80;;;;;;;;;;5037892;28;93893;-51
2022/09/07 03:20:23;;;;;;;4.23;2.63;;;;;;;;;;5037734;28;92850;-50
2022/09/07 03:22:51;;;;;;;2.30;2.03;;;;;;;;;;5038417;28;92212;-51
2022/09/07 03:25:22;;;;;;;3.30;2.20;;;;;;;;;;5037408;28;94210;-50
2022/09/07 03:27:50;;;;;;;3.43;2.70;;;;;;;;;;5038320;28;93945;-51
2022/09/07 03:30:18;;;;;;;3.87;2.50;;;;;;;;;;5038324;28;94049;-51
2022/09/07 03:32:46;;;;;;;2.37;1.63;;;;;;;;;;5037617;28;92181;-51
2022/09/07 03:35:15;;;;;;;3.63;2.23;;;;;;;;;;5036491;27;94169;-51
2022/09/07 03:37:43;;;;;;;1.70;1.47;;;;;;;;;;5036829;28;94820;-51
2022/09/07 03:40:12;;;;;;;2.23;1.67;;;;;;;;;;5021242;28;92192;-51
2022/09/07 03:42:42;;;;;;;2.37;1.70;;;;;;;;;;5025749;28;92100;-51
2022/09/07 03:45:10;;;;;;;4.03;1.63;;;;;;;;;;5037400;28;94191;-51
2022/09/07 03:47:39;;;;;;;3.23;1.80;;;;;;;;;;5036879;28;92909;-51
2022/09/07 03:50:07;;;;;;;2.27;1.37;;;;;;;;;;5037292;28;92153;-51
2022/09/07 03:52:36;;;;;;;2.43;1.70;;;;;;;;;;5018849;28;91450;-51
2022/09/07 03:55:04;;;;;;;1.30;1.20;;;;;;;;;;5020375;28;94327;-50
2022/09/07 03:57:33;;;;;;;2.87;1.87;;;;;;;;;;5037365;28;93758;-51
2022/09/07 04:00:03;;;;;;;3.40;2.53;;;;;;;;;;5037066;28;93090;-50
2022/09/07 04:02:31;;;;;;;2.13;1.70;;;;;;;;;;5037802;28;92020;-51
2022/09/07 04:04:59;;;;;;;3.47;1.73;;;;;;;;;;5036622;28;94330;-51
2022/09/07 04:07:27;;;;;;;2.73;1.70;;;;;;;;;;5037809;28;92976;-49
2022/09/07 04:09:56;;;;;;;2.60;1.50;;;;;;;;;;5037408;28;92134;-50
2022/09/07 04:12:25;;;;;;;7.63;1.90;;;;;;;;;;5036683;28;92149;-50
2022/09/07 04:14:53;;;;;;;1.77;1.63;;;;;;;;;;5037381;28;93165;-50
2022/09/07 04:17:23;;;;;;;3.30;2.00;;;;;;;;;;5037697;28;92759;-50
2022/09/07 04:19:51;;;;;;;2.00;1.80;;;;;;;;;;5038267;28;92119;-52
2022/09/07 04:22:20;;;;;;;2.07;1.43;;;;;;;;;;5036760;28;92087;-51
2022/09/07 04:24:48;;;;;;;2.03;1.83;;;;;;;;;;5020086;28;95149;-50
2022/09/07 04:27:16;;;;;;;2.17;1.93;;;;;;;;;;5036701;28;95075;-51
2022/09/07 04:29:44;;;;;;;4.03;2.33;;;;;;;;;;5036935;28;92100;-51
2022/09/07 04:32:13;;;;;;;3.60;2.07;;;;;;;;;;5038002;28;92146;-51
2022/09/07 04:34:44;;;;;;;2.70;1.53;;;;;;;;;;5037398;28;94215;-51
2022/09/07 04:37:12;;;;;;;3.07;1.50;;;;;;;;;;5036253;27;93893;-51
2022/09/07 04:39:41;;;;;;;2.53;2.00;;;;;;;;;;5036856;28;92052;-51
2022/09/07 04:42:09;;;;;;;1.70;1.60;;;;;;;;;;5031077;28;92759;-51
2022/09/07 04:44:37;;;;;;;2.23;1.50;;;;;;;;;;5029130;28;94354;-52
2022/09/07 04:47:06;;;;;;;3.10;1.90;;;;;;;;;;5027843;28;92230;-52
2022/09/07 04:49:34;;;;;;;1.50;1.40;;;;;;;;;;5028325;27;95076;-52
2022/09/07 04:52:04;;;;;;;1.80;1.53;;;;;;;;;;5031805;27;92799;-52
2022/09/07 04:54:32;;;;;;;2.33;1.80;;;;;;;;;;5033168;28;93516;-51
2022/09/07 04:57:00;;;;;;;1.53;1.43;;;;;;;;;;5031822;27;93828;-52
2022/09/07 04:59:28;;;;;;;2.63;2.00;;;;;;;;;;5031631;27;94051;-52
2022/09/07 05:01:57;;;;;;;2.10;1.73;;;;;;;;;;5031424;28;92264;-52
2022/09/07 05:04:25;;;;;;;3.93;1.67;;;;;;;;;;5032287;28;94083;-51
2022/09/07 05:06:53;;;;;;;1.80;1.50;;;;;;;;;;5033140;27;92739;-51
2022/09/07 05:09:23;;;;;;;1.70;1.60;;;;;;;;;;5032499;27;93418;-51
2022/09/07 05:11:51;;;;;;;2.03;1.50;;;;;;;;;;5036771;28;92175;-51
2022/09/07 05:14:20;;;;;;;1.43;1.30;;;;;;;;;;5038562;28;95157;-52
2022/09/07 05:16:48;;;;;;;4.20;2.10;;;;;;;;;;5039739;28;94998;-51
2022/09/07 05:19:16;;;;;;;1.77;1.20;;;;;;;;;;5040145;28;92077;-51
2022/09/07 05:21:45;;;;;;;2.07;1.70;;;;;;;;;;5040241;28;92086;-51
2022/09/07 05:24:13;;;;;;;2.03;1.40;;;;;;;;;;5039769;28;93421;-51
2022/09/07 05:26:43;;;;;;;1.40;1.30;;;;;;;;;;5038828;28;93895;-53
2022/09/07 05:29:11;;;;;;;0.80;0.80;;;;;;;;;;5038334;28;92152;-54
2022/09/07 05:31:59;;;;;;;1.97;1.57;;;;;;;;;;5039242;28;91507;-54
2022/09/07 05:34:28;;;;;;;2.13;1.40;;;;;;;;;;5038748;28;94171;-53
2022/09/07 05:36:57;;;;;;;1.77;1.50;;;;;;;;;;5038583;28;92725;-53
2022/09/07 05:39:25;;;;;;;1.43;1.10;;;;;;;;;;5039651;28;93064;-53
2022/09/07 05:41:55;;;;;;;2.07;1.40;;;;;;;;;;5040074;27;92290;-53
2022/09/07 05:44:23;;;;;;;2.77;1.43;;;;;;;;;;5039756;28;94286;-53
2022/09/07 05:47:12;;;;;;;2.37;1.67;;;;;;;;;;5038944;28;92422;-53
2022/09/07 05:49:40;;;;;;;2.40;1.37;;;;;;;;;;5038595;28;94454;-53
2022/09/07 05:52:08;;;;;;;2.17;1.40;;;;;;;;;;5038410;28;92176;-53
2022/09/07 05:54:37;;;;;;;1.23;0.97;;;;;;;;;;5039055;28;94164;-54
2022/09/07 05:57:06;;;;;;;1.00;1.00;;;;;;;;;;5038570;28;93864;-53
2022/09/07 05:59:35;;;;;;;1.83;1.60;;;;;;;;;;5038089;28;93731;-53
2022/09/07 06:02:03;;;;;;;1.20;1.10;;;;;;;;;;5038722;27;92234;-54
2022/09/07 06:04:31;;;;;;;1.13;1.00;;;;;;;;;;5037687;28;94042;-53
2022/09/07 06:07:00;;;;;;;1.37;1.00;;;;;;;;;;5037382;27;94811;-54
2022/09/07 06:09:48;;;;;;;1.73;1.20;;;;;;;;;;5038904;28;92436;-52
2022/09/07 06:12:38;;;;;;;1.40;0.80;;;;;;;;;;5038407;27;92088;-53
2022/09/07 06:15:07;;;;;;;0.87;0.87;;;;;;;;;;5037549;28;94714;-53
2022/09/07 06:17:35;;;;;;;1.53;1.23;;;;;;;;;;5038053;28;93922;-54
2022/09/07 06:20:03;;;;;;;1.77;0.90;;;;;;;;;;5039239;27;92650;-54
2022/09/07 06:22:32;;;;;;;1.13;1.03;;;;;;;;;;5037543;28;91280;-56
2022/09/07 06:25:00;;;;;;;1.50;1.10;;;;;;;;;;5038460;28;94516;-56
2022/09/07 06:27:28;;;;;;;1.13;0.90;;;;;;;;;;5038186;28;94034;-54
2022/09/07 06:29:58;;;;;;;2.10;1.27;;;;;;;;;;5038557;28;93119;-55
2022/09/07 06:32:26;;;;;;;1.27;1.00;;;;;;;;;;5038256;28;92251;-54
2022/09/07 06:35:11;;;;;;;1.03;0.93;;;;;;;;;;5037064;28;93107;-54
2022/09/07 06:37:39;;;;;;;5.50;0.90;;;;;;;;;;5035835;28;94201;-55
2022/09/07 06:40:09;;;;;;;0.83;0.83;;;;;;;;;;5038378;28;93298;-54
2022/09/07 06:42:38;;;;;;;1.10;1.00;;;;;;;;;;5038917;28;93462;-56
2022/09/07 06:45:09;;;;;;;1.10;1.00;;;;;;;;;;5037996;28;94191;-55
2022/09/07 06:47:38;;;;;;;0.90;0.80;;;;;;;;;;5037838;28;91416;-55
2022/09/07 06:50:07;;;;;;;1.57;1.07;;;;;;;;;;5038538;28;92165;-55
2022/09/07 06:52:36;;;;;;;1.63;0.90;;;;;;;;;;5030664;28;92178;-55
2022/09/07 06:55:24;;;;;;;2.90;0.80;;;;;;;;;;5035999;28;93933;-55
2022/09/07 06:57:53;;;;;;;0.80;0.80;;;;;;;;;;5037936;28;93732;-55
2022/09/07 07:00:23;;;;;;;1.43;1.00;;;;;;;;;;5037823;28;92160;-55
2022/09/07 07:02:51;;;;;;;0.70;0.70;;;;;;;;;;5038800;28;92222;-55
2022/09/07 07:05:19;;;;;;;1.10;0.73;;;;;;;;;;5037461;28;94051;-55
2022/09/07 07:07:48;;;;;;;2.53;0.80;;;;;;;;;;5034212;28;93891;-55
2022/09/07 07:10:16;;;;;;;0.60;0.60;;;;;;;;;;5038027;28;92420;-56
2022/09/07 07:12:55;;;;;;;0.70;0.70;;;;;;;;;;5036898;27;91560;-55
2022/09/07 07:15:25;;;;;;;1.57;0.63;;;;;;;;;;5037709;28;94044;-55
2022/09/07 07:17:53;;;;;;;0.40;0.40;;;;;;;;;;5037255;28;93801;-55
2022/09/07 07:20:27;;;;;;;1.03;0.83;;;;;;;;;;5038105;28;92914;-55
2022/09/07 07:22:55;;;;;;;1.03;0.67;;;;;;;;;;5038006;28;92398;-56
2022/09/07 07:25:24;;;;;;;0.60;0.60;;;;;;;;;;5037298;28;94207;-54
2022/09/07 07:27:52;;;;;;;2.80;0.60;;;;;;;;;;5022467;28;93898;-54
2022/09/07 07:30:20;;;;;;;1.03;0.60;;;;;;;;;;5038533;28;92161;-54
2022/09/07 07:32:50;;;;;;;1.23;0.60;;;;;;;;;;5037946;28;92144;-55
2022/09/07 07:35:19;;;;;;;0.73;0.50;;;;;;;;;;5038254;28;94161;-55
2022/09/07 07:37:47;;;;;;;0.87;0.60;;;;;;;;;;5037634;28;93606;-56
2022/09/07 07:40:16;;;;;;;1.27;0.60;;;;;;;;;;5037797;28;92024;-56
2022/09/07 07:42:49;;;;;;;0.87;0.67;;;;;;;;;;5038370;28;92079;-54
2022/09/07 07:45:17;;;;;;;0.40;0.40;;;;;;;;;;5037551;27;93951;-55
2022/09/07 07:48:07;;;;;;;0.80;0.80;;;;;;;;;;5036952;28;93362;-55
2022/09/07 07:50:35;;;;;;;0.90;0.53;;;;;;;;;;5021406;28;92157;-53
2022/09/07 07:53:04;;;;;;;1.07;0.53;;;;;;;;;;5036857;27;92097;-53
2022/09/07 07:55:52;;;;;;;2.80;0.60;;;;;;;;;;5031995;28;93724;-54
2022/09/07 07:58:21;;;;;;;0.90;0.57;;;;;;;;;;5037732;28;93758;-54
2022/09/07 08:00:49;;;;;;;0.40;0.40;;;;;;;;;;5038217;28;91991;-55
2022/09/07 08:03:24;;;;;;;0.80;0.80;;;;;;;;;;5037935;28;91460;-54
2022/09/07 08:05:53;;;;;;;1.07;0.70;;;;;;;;;;5037964;28;94137;-54
2022/09/07 08:08:21;;;;;;;0.77;0.50;;;;;;;;;;5037130;27;92636;-55
2022/09/07 08:10:50;;;;;;;0.60;0.50;;;;;;;;;;5035895;28;93073;-54
2022/09/07 08:13:20;;;;;;;0.93;0.63;;;;;;;;;;5036975;28;92203;-54
2022/09/07 08:15:48;;;;;;;1.23;0.80;;;;;;;;;;5037398;28;94154;-54
2022/09/07 08:18:16;;;;;;;1.00;0.60;;;;;;;;;;5038174;28;93356;-55
2022/09/07 08:20:46;;;;;;;1.63;0.63;;;;;;;;;;5037852;28;92007;-54
2022/09/07 08:23:16;;;;;;;0.90;0.70;;;;;;;;;;5037718;28;92162;-54
2022/09/07 08:25:53;;;;;;;0.63;0.50;;;;;;;;;;5036112;28;93806;-54
2022/09/07 08:28:22;;;;;;;2.43;0.70;;;;;;;;;;5033025;28;93860;-54
2022/09/07 08:30:50;;;;;;;1.33;0.80;;;;;;;;;;5037274;28;92126;-54
2022/09/07 08:33:18;;;;;;;0.53;0.53;;;;;;;;;;5037759;28;92111;-54
2022/09/07 08:35:58;;;;;;;1.63;0.60;;;;;;;;;;5037237;28;94314;-54
2022/09/07 08:38:26;;;;;;;0.67;0.67;;;;;;;;;;5017280;28;93548;-56
2022/09/07 08:40:54;;;;;;;1.20;0.50;;;;;;;;;;5033861;28;92736;-54
2022/09/07 08:43:28;;;;;;;0.60;0.60;;;;;;;;;;5035934;28;92122;-54
2022/09/07 08:45:58;;;;;;;0.60;0.53;;;;;;;;;;5036509;28;94066;-54
2022/09/07 08:48:28;;;;;;;0.63;0.60;;;;;;;;;;5037065;28;93864;-54
2022/09/07 08:50:58;;;;;;;1.67;0.67;;;;;;;;;;5035666;28;92188;-56
2022/09/07 08:53:27;;;;;;;0.40;0.40;;;;;;;;;;5036501;28;91347;-56
2022/09/07 08:55:56;;;;;;;1.77;0.50;;;;;;;;;;5035371;27;94251;-55
2022/09/07 08:58:25;;;;;;;0.43;0.40;;;;;;;;;;5046888;27;93775;-56
2022/09/07 09:01:13;;;;;;;0.50;0.50;;;;;;;;;;5036529;28;93111;-55
2022/09/07 09:04:01;;;;;;;0.30;0.30;;;;;;;;;;5037391;28;91917;-56
2022/09/07 09:06:52;;;;;;;0.53;0.47;;;;;;;;;;5036636;28;94198;-54
2022/09/07 09:09:22;;;;;;;0.93;0.73;;;;;;;;;;5036847;27;92646;-55
2022/09/07 09:11:52;;;;;;;0.37;0.37;;;;;;;;;;5037483;28;92036;-54
2022/09/07 09:14:24;;;;;;;1.80;0.40;;;;;;;;;;5036772;28;92558;-55
2022/09/07 09:16:53;;;;;;;0.60;0.40;;;;;;;;;;5036126;27;94269;-54
2022/09/07 09:19:28;;;;;;;0.50;0.50;;;;;;;;;;5036613;28;91639;-55
2022/09/07 09:22:12;;;;;;;7.73;2.47;;;;;;;;;;5037576;28;92155;-55
2022/09/07 09:24:41;;;;;;;45.17;15.67;;;;;;;;;;5037006;28;92026;-54
2022/09/07 09:27:10;;;;;;;46.20;18.07;;;;;;;;;;5035264;28;94723;-54
2022/09/07 09:29:38;;;;;;;51.13;16.50;;;;;;;;;;5048073;27;95386;-54
2022/09/07 09:32:25;;;;;;;31.60;12.30;;;;;;;;;;5037614;27;92143;-54
2022/09/07 09:35:00;;;;;;;21.07;9.47;;;;;;;;;;5036168;27;92315;-53
2022/09/07 09:37:35;;;;;;;30.93;10.63;;;;;;;;;;5038757;28;93066;-55
2022/09/07 09:40:05;;;;;;;30.63;10.80;;;;;;;;;;5037098;28;93736;-55
2022/09/07 09:42:34;;;;;;;27.37;10.13;;;;;;;;;;5039875;28;92095;-54
2022/09/07 09:45:07;;;;;;;20.43;7.47;;;;;;;;;;5039895;28;91279;-54
2022/09/07 09:47:35;;;;;;;20.23;6.83;;;;;;;;;;5040197;28;94150;-55
2022/09/07 09:50:04;;;;;;;16.57;6.57;;;;;;;;;;5040057;28;93812;-55
2022/09/07 09:52:35;;;;;;;14.30;5.30;;;;;;;;;;5039632;28;93233;-54
2022/09/07 09:55:22;;;;;;;9.10;4.03;;;;;;;;;;5040602;28;92134;-55
2022/09/07 09:58:03;;;;;;;8.37;3.53;;;;;;;;;;5040073;28;94197;-55
2022/09/07 10:00:54;;;;;;;10.50;3.30;;;;;;;;;;5039860;28;93660;-55
2022/09/07 10:03:43;;;;;;;9.77;3.53;;;;;;;;;;5040116;28;92274;-55
2022/09/07 10:06:31;;;;;;;8.13;3.07;;;;;;;;;;5040286;28;92077;-54
2022/09/07 10:09:01;;;;;;;8.37;3.33;;;;;;;;;;5039252;28;94153;-55
2022/09/07 10:11:39;;;;;;;2.93;1.90;;;;;;;;;;5039912;28;93873;-54
2022/09/07 10:14:28;;;;;;;7.40;1.73;;;;;;;;;;5039635;28;92088;-55
2022/09/07 10:16:56;;;;;;;5.73;1.67;;;;;;;;;;5040274;28;92057;-55
2022/09/07 10:19:27;;;;;;;2.73;1.40;;;;;;;;;;5038707;28;94052;-54
2022/09/07 10:21:56;;;;;;;2.93;1.60;;;;;;;;;;5038969;28;94913;-54
2022/09/07 10:24:27;;;;;;;2.20;1.60;;;;;;;;;;5039898;28;92162;-55
2022/09/07 10:26:55;;;;;;;2.67;1.20;;;;;;;;;;5040167;28;92025;-54
2022/09/07 10:29:28;;;;;;;7.60;2.07;;;;;;;;;;5038523;28;93005;-55
2022/09/07 10:31:59;;;;;;;1.50;0.90;;;;;;;;;;5039867;28;93639;-55
2022/09/07 10:34:29;;;;;;;2.00;1.17;;;;;;;;;;5039527;28;92187;-55
2022/09/07 10:36:59;;;;;;;2.70;0.67;;;;;;;;;;5040292;28;91305;-55
2022/09/07 10:39:30;;;;;;;2.97;0.80;;;;;;;;;;5038978;28;93193;-55
2022/09/07 10:42:00;;;;;;;2.03;1.30;;;;;;;;;;5039508;28;94145;-55
2022/09/07 10:44:42;;;;;;;3.93;0.70;;;;;;;;;;5039365;28;92984;-55
2022/09/07 10:47:12;;;;;;;1.10;1.00;;;;;;;;;;5039199;27;92693;-55
2022/09/07 10:49:41;;;;;;;3.93;1.53;;;;;;;;;;5039118;28;94199;-54
2022/09/07 10:52:33;;;;;;;3.10;0.70;;;;;;;;;;5038860;28;92304;-55
2022/09/07 10:55:05;;;;;;;1.93;0.87;;;;;;;;;;5038212;28;92408;-54
2022/09/07 10:57:37;;;;;;;1.57;0.87;;;;;;;;;;5039164;28;92074;-54
2022/09/07 11:00:08;;;;;;;0.90;0.60;;;;;;;;;;5038949;28;93111;-55
2022/09/07 11:02:41;;;;;;;3.23;0.80;;;;;;;;;;5039095;28;92964;-55
2022/09/07 11:05:12;;;;;;;1.17;0.80;;;;;;;;;;5038894;28;92118;-55
2022/09/07 11:07:50;;;;;;;5.40;0.80;;;;;;;;;;5038948;28;92030;-55
2022/09/07 11:10:22;;;;;;;2.40;0.60;;;;;;;;;;5036506;28;93131;-55
2022/09/07 11:12:50;;;;;;;1.83;0.60;;;;;;;;;;5038535;28;94426;-55
2022/09/07 11:15:19;;;;;;;1.00;1.00;;;;;;;;;;5039196;28;91987;-55
2022/09/07 11:17:48;;;;;;;0.80;0.80;;;;;;;;;;5039303;28;92174;-53
2022/09/07 11:20:23;;;;;;;2.80;0.83;;;;;;;;;;5038926;28;93221;-54
2022/09/07 11:22:52;;;;;;;1.60;0.67;;;;;;;;;;5038543;28;92485;-55
2022/09/07 11:25:23;;;;;;;1.50;0.70;;;;;;;;;;5039001;28;92133;-55
2022/09/07 11:27:59;;;;;;;1.23;0.60;;;;;;;;;;5038357;28;91555;-53
2022/09/07 11:30:28;;;;;;;0.50;0.50;;;;;;;;;;5038409;28;94121;-55
2022/09/07 11:32:59;;;;;;;1.60;0.80;;;;;;;;;;5038322;28;92126;-53
2022/09/07 11:35:32;;;;;;;0.77;0.77;;;;;;;;;;5038450;28;93040;-54
2022/09/07 11:38:02;;;;;;;0.63;0.60;;;;;;;;;;5038952;28;92122;-55
2022/09/07 11:40:33;;;;;;;2.73;0.60;;;;;;;;;;5037643;28;94369;-54
2022/09/07 11:43:03;;;;;;;0.80;0.57;;;;;;;;;;5038303;28;93799;-53
2022/09/07 11:45:33;;;;;;;2.80;0.70;;;;;;;;;;5039452;28;92760;-55
2022/09/07 11:48:02;;;;;;;0.43;0.40;;;;;;;;;;5038895;28;92656;-54
2022/09/07 11:50:30;;;;;;;1.30;0.50;;;;;;;;;;5037258;28;94216;-55
2022/09/07 11:52:59;;;;;;;1.00;0.60;;;;;;;;;;5038813;28;93683;-55
2022/09/07 11:55:28;;;;;;;1.03;0.77;;;;;;;;;;5038600;28;91975;-54
2022/09/07 11:58:11;;;;;;;1.43;0.90;;;;;;;;;;5038566;28;92019;-55
2022/09/07 12:00:42;;;;;;;0.97;0.40;;;;;;;;;;5034696;28;95246;-55
2022/09/07 12:03:26;;;;;;;1.83;0.63;;;;;;;;;;5038187;28;93759;-55
2022/09/07 12:06:02;;;;;;;2.23;0.87;;;;;;;;;;5035930;28;92090;-55
2022/09/07 12:08:35;;;;;;;0.60;0.40;;;;;;;;;;5038510;28;92087;-55
2022/09/07 12:11:09;;;;;;;1.30;0.57;;;;;;;;;;5037978;28;93093;-55
2022/09/07 12:13:52;;;;;;;1.67;0.50;;;;;;;;;;5037531;28;93909;-55
2022/09/07 12:16:22;;;;;;;0.83;0.83;;;;;;;;;;5038260;28;91987;-54
2022/09/07 12:18:56;;;;;;;1.07;0.47;;;;;;;;;;5038771;28;91324;-55
2022/09/07 12:21:31;;;;;;;2.03;0.83;;;;;;;;;;5037967;28;94070;-54
2022/09/07 12:23:59;;;;;;;2.40;0.30;;;;;;;;;;5037952;28;93652;-55
2022/09/07 12:26:46;;;;;;;1.47;0.40;;;;;;;;;;5038189;28;93824;-54
2022/09/07 12:29:22;;;;;;;3.80;0.63;;;;;;;;;;5037605;28;92079;-55
2022/09/07 12:31:52;;;;;;;0.60;0.43;;;;;;;;;;5036895;28;93277;-55
2022/09/07 12:35:00;;;;;;;1.80;0.57;;;;;;;;;;5037586;28;92764;-54
2022/09/07 12:37:36;;;;;;;6.77;0.80;;;;;;;;;;5037766;28;92079;-54
2022/09/07 12:40:22;;;;;;;0.70;0.40;;;;;;;;;;5037784;28;92120;-55
2022/09/07 12:42:51;;;;;;;0.83;0.70;;;;;;;;;;5037154;28;94209;-55
2022/09/07 12:45:37;;;;;;;0.47;0.47;;;;;;;;;;5036240;28;94037;-55
2022/09/07 12:48:08;;;;;;;2.63;0.60;;;;;;;;;;5037750;28;92163;-55
2022/09/07 12:50:36;;;;;;;4.77;0.63;;;;;;;;;;5037633;28;92075;-55
2022/09/07 12:53:25;;;;;;;0.57;0.50;;;;;;;;;;5036369;28;95279;-54
2022/09/07 12:55:57;;;;;;;0.30;0.23;;;;;;;;;;5038042;28;94418;-54
2022/09/07 12:58:51;;;;;;;0.50;0.40;;;;;;;;;;5036840;28;92257;-54
2022/09/07 13:01:23;;;;;;;1.70;0.70;;;;;;;;;;5037220;28;91996;-53
2022/09/07 13:03:57;;;;;;;0.97;0.53;;;;;;;;;;5037918;28;93087;-55
2022/09/07 13:06:28;;;;;;;1.47;0.40;;;;;;;;;;5037535;28;92793;-54
2022/09/07 13:09:32;;;;;;;0.83;0.40;;;;;;;;;;5037318;28;92235;-53
2022/09/07 13:12:03;;;;;;;0.73;0.50;;;;;;;;;;5040447;28;91710;-55
2022/09/07 13:14:38;;;;;;;1.50;0.40;;;;;;;;;;5040577;28;94175;-53
2022/09/07 13:17:37;;;;;;;1.10;0.50;;;;;;;;;;5041019;28;93990;-54
2022/09/07 13:20:22;;;;;;;0.77;0.43;;;;;;;;;;4958593;28;93204;-54
2022/09/07 13:22:55;;;;;;;1.03;0.77;;;;;;;;;;5031437;28;92041;-54
2022/09/07 13:25:44;;;;;;;0.43;0.30;;;;;;;;;;5040622;28;94291;-54
2022/09/07 13:28:21;;;;;;;0.77;0.20;;;;;;;;;;5040573;28;93871;-54
2022/09/07 13:30:54;;;;;;;0.50;0.50;;;;;;;;;;5040605;28;92201;-53
2022/09/07 13:33:41;;;;;;;0.80;0.33;;;;;;;;;;5040321;28;92107;-53
2022/09/07 13:36:16;;;;;;;0.77;0.53;;;;;;;;;;5039889;28;93131;-54
2022/09/07 13:38:46;;;;;;;0.57;0.53;;;;;;;;;;5039529;28;93864;-55
2022/09/07 13:41:16;;;;;;;0.50;0.50;;;;;;;;;;5040250;27;92123;-54
2022/09/07 13:43:46;;;;;;;1.37;0.73;;;;;;;;;;5040080;28;92165;-54
2022/09/07 13:46:17;;;;;;;1.13;0.83;;;;;;;;;;5039272;28;95146;-52
2022/09/07 13:48:47;;;;;;;1.67;0.50;;;;;;;;;;5039816;28;94595;-52
2022/09/07 13:51:17;;;;;;;1.50;0.30;;;;;;;;;;5040751;28;92091;-52
2022/09/07 13:53:49;;;;;;;0.93;0.30;;;;;;;;;;5040506;28;92147;-52
2022/09/07 13:56:19;;;;;;;0.30;0.30;;;;;;;;;;5040043;28;93997;-51
2022/09/07 13:58:48;;;;;;;0.60;0.43;;;;;;;;;;5039888;28;92576;-52
2022/09/07 14:01:18;;;;;;;1.87;0.73;;;;;;;;;;5040068;28;92041;-51
2022/09/07 14:03:47;;;;;;;0.40;0.40;;;;;;;;;;5045959;27;91328;-52
2022/09/07 14:06:16;;;;;;;2.57;0.67;;;;;;;;;;5060417;27;93192;-52
2022/09/07 14:08:49;;;;;;;6.70;0.53;;;;;;;;;;5045004;27;93806;-50
2022/09/07 14:11:18;;;;;;;0.70;0.60;;;;;;;;;;5026092;28;93007;-51
2022/09/07 14:13:46;;;;;;;0.30;0.30;;;;;;;;;;5039038;28;92211;-50
2022/09/07 14:16:14;;;;;;;0.47;0.30;;;;;;;;;;5038238;28;92919;-49
2022/09/07 14:18:43;;;;;;;0.90;0.60;;;;;;;;;;5039414;28;94005;-49
2022/09/07 14:21:11;;;;;;;2.07;0.60;;;;;;;;;;5038837;28;92260;-49
2022/09/07 14:23:40;;;;;;;0.30;0.30;;;;;;;;;;5037206;28;92137;-49
2022/09/07 14:26:12;;;;;;;0.50;0.50;;;;;;;;;;5039558;28;93853;-49
2022/09/07 14:28:45;;;;;;;1.07;0.63;;;;;;;;;;5039328;28;94005;-49
2022/09/07 14:31:14;;;;;;;1.63;0.50;;;;;;;;;;5039014;28;92146;-49
2022/09/07 14:33:43;;;;;;;1.50;0.73;;;;;;;;;;5038548;28;92029;-50
2022/09/07 14:36:14;;;;;;;0.60;0.60;;;;;;;;;;5038003;27;95126;-49
2022/09/07 14:39:02;;;;;;;0.40;0.40;;;;;;;;;;5038614;28;93287;-49
2022/09/07 14:41:37;;;;;;;0.93;0.40;;;;;;;;;;5039332;28;92103;-50
2022/09/07 14:44:05;;;;;;;1.60;0.60;;;;;;;;;;5039385;28;92183;-50
2022/09/07 14:46:33;;;;;;;1.70;0.50;;;;;;;;;;5038817;28;93134;-50
2022/09/07 14:49:03;;;;;;;1.23;0.57;;;;;;;;;;5038943;28;93594;-49
2022/09/07 14:51:32;;;;;;;0.50;0.50;;;;;;;;;;5040138;28;92720;-50
2022/09/07 14:54:04;;;;;;;1.10;0.70;;;;;;;;;;5039437;28;91267;-49
2022/09/07 14:56:34;;;;;;;0.47;0.47;;;;;;;;;;5038636;28;94212;-50
2022/09/07 14:59:02;;;;;;;0.67;0.50;;;;;;;;;;5038925;28;93682;-49
2022/09/07 15:01:30;;;;;;;1.43;0.70;;;;;;;;;;5038971;28;93087;-50
2022/09/07 15:04:15;;;;;;;1.17;0.60;;;;;;;;;;5038765;28;92056;-49
2022/09/07 15:06:45;;;;;;;0.60;0.53;;;;;;;;;;5038158;28;93168;-49
2022/09/07 15:09:30;;;;;;;1.50;0.43;;;;;;;;;;5038070;28;92879;-49
2022/09/07 15:12:10;;;;;;;1.00;0.50;;;;;;;;;;5039249;28;92123;-49